sensor_id;sensor_type;location;lat;lon;timestamp;temperature;humidity
23748;DHT22;12054;53.662;10.126;2023-04-24T00:01:36;13.70;99.90
23748;DHT22;12054;53.662;10.126;2023-04-24T00:04:02;13.60;99.90
23748;DHT22;12054;53.662;10.126;2023-04-24T00:06:29;13.60;99.90
23748;DHT22;12054;53.662;10.126;2023-04-24T00:08:59;13.60;99.90
23748;DHT22;12054;53.662;10.126;2023-04-24T00:11:25;13.60;99.90
23748;DHT22;12054;53.662;10.126;2023-04-24T00:13:51;13.50;99.90
23748;DHT22;12054;53.662;10.126;2023-04-24T00:16:16;13.50;99.90
23748;DHT22;12054;53.662;10.126;2023-04-24T00:18:42;13.50;99.90
23748;DHT22;12054;53.662;10.126;2023-04-24T00:21:07;13.50;99.90
23748;DHT22;12054;53.662;10.126;2023-04-24T00:23:33;13.60;99.90
23748;DHT22;12054;53.662;10.126;2023-04-24T00:25:58;13.50;99.90
23748;DHT22;12054;53.662;10.126;2023-04-24T00:28:24;13.50;99.90
23748;DHT22;12054;53.662;10.126;2023-04-24T00:30:49;13.50;99.90
23748;DHT22;12054;53.662;10.126;2023-04-24T00:33:15;13.50;99.90
23748;DHT22;12054;53.662;10.126;2023-04-24T00:35:40;13.50;99.90
23748;DHT22;12054;53.662;10.126;2023-04-24T00:38:06;13.50;99.90
23748;DHT22;12054;53.662;10.126;2023-04-24T00:40:32;13.40;99.90
23748;DHT22;12054;53.662;10.126;2023-04-24T00:42:58;13.50;99.90
23748;DHT22;12054;53.662;10.126;2023-04-24T00:45:23;13.40;99.90
23748;DHT22;12054;53.662;10.126;2023-04-24T00:47:50;13.40;99.90
23748;DHT22;12054;53.662;10.126;2023-04-24T00:50:17;13.40;99.90
23748;DHT22;12054;53.662;10.126;2023-04-24T00:52:44;13.40;99.90
23748;DHT22;12054;53.662;10.126;2023-04-24T00:55:10;13.30;99.90
23748;DHT22;12054;53.662;10.126;2023-04-24T00:57:36;13.40;99.90
23748;DHT22;12054;53.662;10.126;2023-04-24T01:00:03;13.40;99.90
23748;DHT22;12054;53.662;10.126;2023-04-24T01:02:31;13.40;99.90
23748;DHT22;12054;53.662;10.126;2023-04-24T01:05:00;13.30;99.90
23748;DHT22;12054;53.662;10.126;2023-04-24T01:07:26;13.30;99.90
23748;DHT22;12054;53.662;10.126;2023-04-24T01:09:54;13.30;99.90
23748;DHT22;12054;53.662;10.126;2023-04-24T01:12:19;13.30;99.90
23748;DHT22;12054;53.662;10.126;2023-04-24T01:14:45;13.30;99.90
23748;DHT22;12054;53.662;10.126;2023-04-24T01:17:11;13.20;99.90
23748;DHT22;12054;53.662;10.126;2023-04-24T01:19:37;13.20;99.90
23748;DHT22;12054;53.662;10.126;2023-04-24T01:22:03;13.20;99.90
23748;DHT22;12054;53.662;10.126;2023-04-24T01:24:30;13.20;99.90
23748;DHT22;12054;53.662;10.126;2023-04-24T01:26:55;13.20;99.90
23748;DHT22;12054;53.662;10.126;2023-04-24T01:29:22;13.20;99.90
23748;DHT22;12054;53.662;10.126;2023-04-24T01:31:47;13.20;99.90
23748;DHT22;12054;53.662;10.126;2023-04-24T01:34:14;13.20;99.90
23748;DHT22;12054;53.662;10.126;2023-04-24T01:36:41;13.20;99.90
23748;DHT22;12054;53.662;10.126;2023-04-24T01:39:06;13.20;99.90
23748;DHT22;12054;53.662;10.126;2023-04-24T01:41:32;13.10;99.90
23748;DHT22;12054;53.662;10.126;2023-04-24T01:43:58;13.10;99.90
23748;DHT22;12054;53.662;10.126;2023-04-24T01:46:24;13.10;99.90
23748;DHT22;12054;53.662;10.126;2023-04-24T01:48:51;13.10;99.90
23748;DHT22;12054;53.662;10.126;2023-04-24T01:51:16;13.10;99.90
23748;DHT22;12054;53.662;10.126;2023-04-24T01:53:42;13.10;99.90
23748;DHT22;12054;53.662;10.126;2023-04-24T01:56:08;13.10;99.90
23748;DHT22;12054;53.662;10.126;2023-04-24T01:58:34;13.10;99.90
23748;DHT22;12054;53.662;10.126;2023-04-24T02:00:59;13.10;99.90
23748;DHT22;12054;53.662;10.126;2023-04-24T02:03:26;13.10;99.90
23748;DHT22;12054;53.662;10.126;2023-04-24T02:05:51;13.10;99.90
23748;DHT22;12054;53.662;10.126;2023-04-24T02:08:17;13.00;99.90
23748;DHT22;12054;53.662;10.126;2023-04-24T02:10:42;13.00;99.90
23748;DHT22;12054;53.662;10.126;2023-04-24T02:13:08;13.00;99.90
23748;DHT22;12054;53.662;10.126;2023-04-24T02:15:33;13.00;99.90
23748;DHT22;12054;53.662;10.126;2023-04-24T02:17:59;13.00;99.90
23748;DHT22;12054;53.662;10.126;2023-04-24T02:20:25;13.00;99.90
23748;DHT22;12054;53.662;10.126;2023-04-24T02:22:50;13.00;99.90
23748;DHT22;12054;53.662;10.126;2023-04-24T02:25:16;13.00;99.90
23748;DHT22;12054;53.662;10.126;2023-04-24T02:27:41;12.90;99.90
23748;DHT22;12054;53.662;10.126;2023-04-24T02:30:07;12.90;99.90
23748;DHT22;12054;53.662;10.126;2023-04-24T02:32:33;12.90;99.90
23748;DHT22;12054;53.662;10.126;2023-04-24T02:34:59;12.90;99.90
23748;DHT22;12054;53.662;10.126;2023-04-24T02:37:24;12.90;99.90
23748;DHT22;12054;53.662;10.126;2023-04-24T02:39:50;12.90;99.90
23748;DHT22;12054;53.662;10.126;2023-04-24T02:42:15;12.90;99.90
23748;DHT22;12054;53.662;10.126;2023-04-24T02:44:41;12.90;99.90
23748;DHT22;12054;53.662;10.126;2023-04-24T02:47:06;12.80;99.90
23748;DHT22;12054;53.662;10.126;2023-04-24T02:49:32;12.80;99.90
23748;DHT22;12054;53.662;10.126;2023-04-24T02:51:58;12.80;99.90
23748;DHT22;12054;53.662;10.126;2023-04-24T02:54:23;12.80;99.90
23748;DHT22;12054;53.662;10.126;2023-04-24T02:56:49;12.80;99.90
23748;DHT22;12054;53.662;10.126;2023-04-24T02:59:15;12.80;99.90
23748;DHT22;12054;53.662;10.126;2023-04-24T03:01:40;12.70;99.90
23748;DHT22;12054;53.662;10.126;2023-04-24T03:04:06;12.70;99.90
23748;DHT22;12054;53.662;10.126;2023-04-24T03:06:31;12.70;99.90
23748;DHT22;12054;53.662;10.126;2023-04-24T03:08:58;12.70;99.90
23748;DHT22;12054;53.662;10.126;2023-04-24T03:11:23;12.70;99.90
23748;DHT22;12054;53.662;10.126;2023-04-24T03:13:49;12.60;99.90
23748;DHT22;12054;53.662;10.126;2023-04-24T03:16:14;12.60;99.90
23748;DHT22;12054;53.662;10.126;2023-04-24T03:18:40;12.60;99.90
23748;DHT22;12054;53.662;10.126;2023-04-24T03:21:05;12.60;99.90
23748;DHT22;12054;53.662;10.126;2023-04-24T03:23:31;12.50;99.90
23748;DHT22;12054;53.662;10.126;2023-04-24T03:25:56;12.50;99.90
23748;DHT22;12054;53.662;10.126;2023-04-24T03:28:22;12.60;99.90
23748;DHT22;12054;53.662;10.126;2023-04-24T03:30:47;12.50;99.90
23748;DHT22;12054;53.662;10.126;2023-04-24T03:33:13;12.50;99.90
23748;DHT22;12054;53.662;10.126;2023-04-24T03:35:38;12.50;99.90
23748;DHT22;12054;53.662;10.126;2023-04-24T03:38:04;12.40;99.90
23748;DHT22;12054;53.662;10.126;2023-04-24T03:40:30;12.40;99.90
23748;DHT22;12054;53.662;10.126;2023-04-24T03:42:55;12.40;99.90
23748;DHT22;12054;53.662;10.126;2023-04-24T03:45:21;12.30;99.90
23748;DHT22;12054;53.662;10.126;2023-04-24T03:47:46;12.30;99.90
23748;DHT22;12054;53.662;10.126;2023-04-24T03:50:12;12.30;99.90
23748;DHT22;12054;53.662;10.126;2023-04-24T03:52:38;12.30;99.90
23748;DHT22;12054;53.662;10.126;2023-04-24T03:55:03;12.30;99.90
23748;DHT22;12054;53.662;10.126;2023-04-24T03:57:29;12.20;99.90
23748;DHT22;12054;53.662;10.126;2023-04-24T03:59:55;12.20;99.90
23748;DHT22;12054;53.662;10.126;2023-04-24T04:02:20;12.20;99.90
23748;DHT22;12054;53.662;10.126;2023-04-24T04:04:46;12.20;99.90
23748;DHT22;12054;53.662;10.126;2023-04-24T04:07:11;12.20;99.90
23748;DHT22;12054;53.662;10.126;2023-04-24T04:09:38;12.10;99.90
23748;DHT22;12054;53.662;10.126;2023-04-24T04:12:03;12.10;99.90
23748;DHT22;12054;53.662;10.126;2023-04-24T04:14:29;12.10;99.90
23748;DHT22;12054;53.662;10.126;2023-04-24T04:16:54;12.10;99.90
23748;DHT22;12054;53.662;10.126;2023-04-24T04:19:20;12.10;99.90
23748;DHT22;12054;53.662;10.126;2023-04-24T04:21:45;12.00;99.90
23748;DHT22;12054;53.662;10.126;2023-04-24T04:24:11;12.00;99.90
23748;DHT22;12054;53.662;10.126;2023-04-24T04:26:37;12.00;99.90
23748;DHT22;12054;53.662;10.126;2023-04-24T04:29:03;12.00;99.90
23748;DHT22;12054;53.662;10.126;2023-04-24T04:31:29;12.00;99.90
23748;DHT22;12054;53.662;10.126;2023-04-24T04:33:55;12.00;99.90
23748;DHT22;12054;53.662;10.126;2023-04-24T04:36:21;12.00;99.90
23748;DHT22;12054;53.662;10.126;2023-04-24T04:38:46;12.00;99.90
23748;DHT22;12054;53.662;10.126;2023-04-24T04:41:12;12.00;99.90
23748;DHT22;12054;53.662;10.126;2023-04-24T04:43:38;12.00;99.90
23748;DHT22;12054;53.662;10.126;2023-04-24T04:46:05;12.00;99.90
23748;DHT22;12054;53.662;10.126;2023-04-24T04:48:30;12.00;99.90
23748;DHT22;12054;53.662;10.126;2023-04-24T04:50:57;12.00;99.90
23748;DHT22;12054;53.662;10.126;2023-04-24T04:53:22;12.00;99.90
23748;DHT22;12054;53.662;10.126;2023-04-24T04:55:48;12.00;99.90
23748;DHT22;12054;53.662;10.126;2023-04-24T04:58:13;12.10;99.90
23748;DHT22;12054;53.662;10.126;2023-04-24T05:00:39;12.20;99.90
23748;DHT22;12054;53.662;10.126;2023-04-24T05:03:04;12.20;99.90
23748;DHT22;12054;53.662;10.126;2023-04-24T05:05:30;12.30;99.90
23748;DHT22;12054;53.662;10.126;2023-04-24T05:07:55;12.40;99.90
23748;DHT22;12054;53.662;10.126;2023-04-24T05:10:21;12.50;99.90
23748;DHT22;12054;53.662;10.126;2023-04-24T05:12:46;12.50;99.90
23748;DHT22;12054;53.662;10.126;2023-04-24T05:15:13;12.60;99.90
23748;DHT22;12054;53.662;10.126;2023-04-24T05:17:39;12.70;99.90
23748;DHT22;12054;53.662;10.126;2023-04-24T05:20:06;12.70;99.90
23748;DHT22;12054;53.662;10.126;2023-04-24T05:22:32;12.80;99.90
23748;DHT22;12054;53.662;10.126;2023-04-24T05:24:58;12.90;99.90
23748;DHT22;12054;53.662;10.126;2023-04-24T05:27:24;13.00;99.90
23748;DHT22;12054;53.662;10.126;2023-04-24T05:29:49;13.10;99.90
23748;DHT22;12054;53.662;10.126;2023-04-24T05:32:15;13.10;99.90
23748;DHT22;12054;53.662;10.126;2023-04-24T05:34:40;13.20;99.90
23748;DHT22;12054;53.662;10.126;2023-04-24T05:37:06;13.20;99.90
23748;DHT22;12054;53.662;10.126;2023-04-24T05:39:34;13.20;99.90
23748;DHT22;12054;53.662;10.126;2023-04-24T05:42:00;13.20;99.90
23748;DHT22;12054;53.662;10.126;2023-04-24T05:44:26;13.20;99.90
23748;DHT22;12054;53.662;10.126;2023-04-24T05:46:52;13.20;99.90
23748;DHT22;12054;53.662;10.126;2023-04-24T05:49:17;13.20;99.90
23748;DHT22;12054;53.662;10.126;2023-04-24T05:51:43;13.20;99.90
23748;DHT22;12054;53.662;10.126;2023-04-24T05:54:08;13.30;99.90
23748;DHT22;12054;53.662;10.126;2023-04-24T05:56:34;13.30;99.90
23748;DHT22;12054;53.662;10.126;2023-04-24T05:59:00;13.30;99.90
23748;DHT22;12054;53.662;10.126;2023-04-24T06:01:25;13.30;99.90
23748;DHT22;12054;53.662;10.126;2023-04-24T06:03:50;13.20;99.90
23748;DHT22;12054;53.662;10.126;2023-04-24T06:06:16;13.20;99.90
23748;DHT22;12054;53.662;10.126;2023-04-24T06:08:42;13.20;99.90
23748;DHT22;12054;53.662;10.126;2023-04-24T06:11:09;13.20;99.90
23748;DHT22;12054;53.662;10.126;2023-04-24T06:13:35;13.20;99.90
23748;DHT22;12054;53.662;10.126;2023-04-24T06:16:00;13.10;99.90
23748;DHT22;12054;53.662;10.126;2023-04-24T06:18:26;13.20;99.90
23748;DHT22;12054;53.662;10.126;2023-04-24T06:20:51;13.20;99.90
23748;DHT22;12054;53.662;10.126;2023-04-24T06:23:17;13.20;99.90
23748;DHT22;12054;53.662;10.126;2023-04-24T06:25:42;13.20;99.90
23748;DHT22;12054;53.662;10.126;2023-04-24T06:28:08;13.20;99.90
23748;DHT22;12054;53.662;10.126;2023-04-24T06:30:33;13.20;99.90
23748;DHT22;12054;53.662;10.126;2023-04-24T06:32:59;13.30;99.90
23748;DHT22;12054;53.662;10.126;2023-04-24T06:35:24;13.30;99.90
23748;DHT22;12054;53.662;10.126;2023-04-24T06:37:50;13.40;99.90
23748;DHT22;12054;53.662;10.126;2023-04-24T06:40:16;13.30;99.90
23748;DHT22;12054;53.662;10.126;2023-04-24T06:42:43;13.30;99.90
23748;DHT22;12054;53.662;10.126;2023-04-24T06:45:09;13.30;99.90
23748;DHT22;12054;53.662;10.126;2023-04-24T06:47:35;13.30;99.90
23748;DHT22;12054;53.662;10.126;2023-04-24T06:50:01;13.40;99.90
23748;DHT22;12054;53.662;10.126;2023-04-24T06:52:27;13.40;99.90
23748;DHT22;12054;53.662;10.126;2023-04-24T06:54:52;13.40;99.90
23748;DHT22;12054;53.662;10.126;2023-04-24T06:57:24;13.50;99.90
23748;DHT22;12054;53.662;10.126;2023-04-24T06:59:50;13.60;99.90
23748;DHT22;12054;53.662;10.126;2023-04-24T07:02:16;13.60;99.90
23748;DHT22;12054;53.662;10.126;2023-04-24T07:04:41;13.70;99.90
23748;DHT22;12054;53.662;10.126;2023-04-24T07:07:07;13.80;99.90
23748;DHT22;12054;53.662;10.126;2023-04-24T07:09:34;13.80;99.90
23748;DHT22;12054;53.662;10.126;2023-04-24T07:12:03;13.90;99.90
23748;DHT22;12054;53.662;10.126;2023-04-24T07:14:29;13.90;99.90
23748;DHT22;12054;53.662;10.126;2023-04-24T07:16:54;13.90;99.90
23748;DHT22;12054;53.662;10.126;2023-04-24T07:19:20;13.90;99.90
23748;DHT22;12054;53.662;10.126;2023-04-24T07:21:45;13.90;99.90
23748;DHT22;12054;53.662;10.126;2023-04-24T07:24:11;14.00;99.90
23748;DHT22;12054;53.662;10.126;2023-04-24T07:26:38;14.20;99.90
23748;DHT22;12054;53.662;10.126;2023-04-24T07:29:04;14.30;99.90
23748;DHT22;12054;53.662;10.126;2023-04-24T07:31:30;14.30;99.90
23748;DHT22;12054;53.662;10.126;2023-04-24T07:33:56;14.20;99.90
23748;DHT22;12054;53.662;10.126;2023-04-24T07:36:23;14.30;99.90
23748;DHT22;12054;53.662;10.126;2023-04-24T07:38:49;14.20;99.90
23748;DHT22;12054;53.662;10.126;2023-04-24T07:41:15;14.20;99.90
23748;DHT22;12054;53.662;10.126;2023-04-24T07:43:41;14.30;99.90
23748;DHT22;12054;53.662;10.126;2023-04-24T07:46:07;14.20;99.90
23748;DHT22;12054;53.662;10.126;2023-04-24T07:48:33;14.20;99.90
23748;DHT22;12054;53.662;10.126;2023-04-24T07:50:59;14.10;99.90
23748;DHT22;12054;53.662;10.126;2023-04-24T07:53:24;14.10;99.90
23748;DHT22;12054;53.662;10.126;2023-04-24T07:55:50;14.20;99.90
23748;DHT22;12054;53.662;10.126;2023-04-24T07:58:15;14.30;99.90
23748;DHT22;12054;53.662;10.126;2023-04-24T08:00:41;14.20;99.90
23748;DHT22;12054;53.662;10.126;2023-04-24T08:03:07;14.20;99.90
23748;DHT22;12054;53.662;10.126;2023-04-24T08:05:32;14.20;99.90
23748;DHT22;12054;53.662;10.126;2023-04-24T08:07:58;14.30;99.90
23748;DHT22;12054;53.662;10.126;2023-04-24T08:10:24;14.40;99.90
23748;DHT22;12054;53.662;10.126;2023-04-24T08:12:50;14.50;99.90
23748;DHT22;12054;53.662;10.126;2023-04-24T08:15:15;14.60;99.90
23748;DHT22;12054;53.662;10.126;2023-04-24T08:17:41;14.60;99.90
23748;DHT22;12054;53.662;10.126;2023-04-24T08:20:08;14.70;99.90
23748;DHT22;12054;53.662;10.126;2023-04-24T08:22:39;14.60;99.90
23748;DHT22;12054;53.662;10.126;2023-04-24T08:25:04;14.70;99.90
23748;DHT22;12054;53.662;10.126;2023-04-24T08:27:30;14.70;99.90
23748;DHT22;12054;53.662;10.126;2023-04-24T08:29:57;14.70;99.90
23748;DHT22;12054;53.662;10.126;2023-04-24T08:32:22;14.70;99.90
23748;DHT22;12054;53.662;10.126;2023-04-24T08:34:48;14.80;99.90
23748;DHT22;12054;53.662;10.126;2023-04-24T08:37:13;14.80;99.90
23748;DHT22;12054;53.662;10.126;2023-04-24T08:39:39;14.90;99.90
23748;DHT22;12054;53.662;10.126;2023-04-24T08:42:05;14.90;99.90
23748;DHT22;12054;53.662;10.126;2023-04-24T08:44:33;14.90;99.90
23748;DHT22;12054;53.662;10.126;2023-04-24T08:47:01;14.90;99.90
23748;DHT22;12054;53.662;10.126;2023-04-24T08:49:28;14.90;99.90
23748;DHT22;12054;53.662;10.126;2023-04-24T08:51:53;14.80;99.90
23748;DHT22;12054;53.662;10.126;2023-04-24T08:54:20;14.80;99.90
23748;DHT22;12054;53.662;10.126;2023-04-24T08:56:48;14.80;99.90
23748;DHT22;12054;53.662;10.126;2023-04-24T08:59:15;14.70;99.90
23748;DHT22;12054;53.662;10.126;2023-04-24T09:01:41;14.70;99.90
23748;DHT22;12054;53.662;10.126;2023-04-24T09:04:09;14.70;99.90
23748;DHT22;12054;53.662;10.126;2023-04-24T09:06:39;14.60;99.90
23748;DHT22;12054;53.662;10.126;2023-04-24T09:09:05;14.60;99.90
23748;DHT22;12054;53.662;10.126;2023-04-24T09:11:31;14.60;99.90
23748;DHT22;12054;53.662;10.126;2023-04-24T09:14:00;14.60;99.90
23748;DHT22;12054;53.662;10.126;2023-04-24T09:16:26;14.60;99.90
23748;DHT22;12054;53.662;10.126;2023-04-24T09:18:52;14.50;99.90
23748;DHT22;12054;53.662;10.126;2023-04-24T09:21:21;14.50;99.90
23748;DHT22;12054;53.662;10.126;2023-04-24T09:23:46;14.60;99.90
23748;DHT22;12054;53.662;10.126;2023-04-24T09:26:12;14.50;99.90
23748;DHT22;12054;53.662;10.126;2023-04-24T09:28:40;14.60;99.90
23748;DHT22;12054;53.662;10.126;2023-04-24T09:31:13;14.60;99.90
23748;DHT22;12054;53.662;10.126;2023-04-24T09:33:40;14.70;99.90
23748;DHT22;12054;53.662;10.126;2023-04-24T09:36:06;14.70;99.90
23748;DHT22;12054;53.662;10.126;2023-04-24T09:38:33;14.70;99.90
23748;DHT22;12054;53.662;10.126;2023-04-24T09:41:00;14.70;99.90
23748;DHT22;12054;53.662;10.126;2023-04-24T09:43:28;14.70;99.90
23748;DHT22;12054;53.662;10.126;2023-04-24T09:45:56;14.70;99.90
23748;DHT22;12054;53.662;10.126;2023-04-24T09:48:32;14.70;99.90
23748;DHT22;12054;53.662;10.126;2023-04-24T09:50:58;14.70;99.90
23748;DHT22;12054;53.662;10.126;2023-04-24T09:53:25;14.70;99.90
23748;DHT22;12054;53.662;10.126;2023-04-24T09:55:51;14.60;99.90
23748;DHT22;12054;53.662;10.126;2023-04-24T09:58:24;14.60;99.90
23748;DHT22;12054;53.662;10.126;2023-04-24T10:00:49;14.60;99.90
23748;DHT22;12054;53.662;10.126;2023-04-24T10:03:18;14.60;99.90
23748;DHT22;12054;53.662;10.126;2023-04-24T10:05:46;14.50;99.90
23748;DHT22;12054;53.662;10.126;2023-04-24T10:08:12;14.50;99.90
23748;DHT22;12054;53.662;10.126;2023-04-24T10:10:42;14.40;99.90
23748;DHT22;12054;53.662;10.126;2023-04-24T10:13:10;14.40;99.90
23748;DHT22;12054;53.662;10.126;2023-04-24T10:15:37;14.40;99.90
23748;DHT22;12054;53.662;10.126;2023-04-24T10:18:04;14.40;99.90
23748;DHT22;12054;53.662;10.126;2023-04-24T10:20:31;14.30;99.90
23748;DHT22;12054;53.662;10.126;2023-04-24T10:22:58;14.30;99.90
23748;DHT22;12054;53.662;10.126;2023-04-24T10:25:26;14.30;99.90
23748;DHT22;12054;53.662;10.126;2023-04-24T10:27:53;14.40;99.90
23748;DHT22;12054;53.662;10.126;2023-04-24T10:30:22;14.40;99.90
23748;DHT22;12054;53.662;10.126;2023-04-24T10:32:48;14.40;99.90
23748;DHT22;12054;53.662;10.126;2023-04-24T10:35:14;14.40;99.90
23748;DHT22;12054;53.662;10.126;2023-04-24T10:37:48;14.50;99.90
23748;DHT22;12054;53.662;10.126;2023-04-24T10:40:26;14.40;99.90
23748;DHT22;12054;53.662;10.126;2023-04-24T10:42:52;14.40;99.90
23748;DHT22;12054;53.662;10.126;2023-04-24T10:45:22;14.40;99.90
23748;DHT22;12054;53.662;10.126;2023-04-24T10:47:58;14.40;99.90
23748;DHT22;12054;53.662;10.126;2023-04-24T10:50:29;14.40;99.90
23748;DHT22;12054;53.662;10.126;2023-04-24T10:53:06;14.40;99.90
23748;DHT22;12054;53.662;10.126;2023-04-24T10:55:51;14.40;99.90
23748;DHT22;12054;53.662;10.126;2023-04-24T10:58:24;14.40;99.90
23748;DHT22;12054;53.662;10.126;2023-04-24T11:01:00;14.40;99.90
23748;DHT22;12054;53.662;10.126;2023-04-24T11:03:27;14.30;99.90
23748;DHT22;12054;53.662;10.126;2023-04-24T11:06:01;14.30;99.90
23748;DHT22;12054;53.662;10.126;2023-04-24T11:08:37;14.30;99.90
23748;DHT22;12054;53.662;10.126;2023-04-24T11:11:17;14.30;99.90
23748;DHT22;12054;53.662;10.126;2023-04-24T11:27:15;14.20;99.90
23748;DHT22;12054;53.662;10.126;2023-04-24T11:29:43;14.20;99.90
23748;DHT22;12054;53.662;10.126;2023-04-24T11:34:58;14.50;99.90
23748;DHT22;12054;53.662;10.126;2023-04-24T11:37:29;14.60;99.90
23748;DHT22;12054;53.662;10.126;2023-04-24T11:39:57;14.60;99.90
23748;DHT22;12054;53.662;10.126;2023-04-24T11:42:23;14.70;99.90
23748;DHT22;12054;53.662;10.126;2023-04-24T11:44:51;14.70;99.90
23748;DHT22;12054;53.662;10.126;2023-04-24T11:47:17;14.70;99.90
23748;DHT22;12054;53.662;10.126;2023-04-24T11:49:43;14.80;99.90
23748;DHT22;12054;53.662;10.126;2023-04-24T11:52:15;14.80;99.90
23748;DHT22;12054;53.662;10.126;2023-04-24T11:54:48;14.80;99.90
23748;DHT22;12054;53.662;10.126;2023-04-24T11:57:14;14.80;99.90
23748;DHT22;12054;53.662;10.126;2023-04-24T11:59:40;14.80;99.90
23748;DHT22;12054;53.662;10.126;2023-04-24T12:02:08;14.80;99.90
23748;DHT22;12054;53.662;10.126;2023-04-24T12:04:39;14.80;99.90
23748;DHT22;12054;53.662;10.126;2023-04-24T12:07:07;14.90;99.90
23748;DHT22;12054;53.662;10.126;2023-04-24T12:09:48;14.90;99.90
23748;DHT22;12054;53.662;10.126;2023-04-24T12:12:18;14.90;99.90
23748;DHT22;12054;53.662;10.126;2023-04-24T12:14:49;14.90;99.90
23748;DHT22;12054;53.662;10.126;2023-04-24T12:17:28;14.90;99.90
23748;DHT22;12054;53.662;10.126;2023-04-24T12:20:01;14.90;99.90
23748;DHT22;12054;53.662;10.126;2023-04-24T12:22:28;14.90;99.90
23748;DHT22;12054;53.662;10.126;2023-04-24T12:25:01;14.80;99.90
23748;DHT22;12054;53.662;10.126;2023-04-24T12:27:34;14.80;99.90
23748;DHT22;12054;53.662;10.126;2023-04-24T12:30:01;14.80;99.90
23748;DHT22;12054;53.662;10.126;2023-04-24T12:32:28;14.80;99.90
23748;DHT22;12054;53.662;10.126;2023-04-24T12:34:55;14.80;99.90
23748;DHT22;12054;53.662;10.126;2023-04-24T12:37:23;14.80;99.90
23748;DHT22;12054;53.662;10.126;2023-04-24T12:40:09;14.90;99.90
23748;DHT22;12054;53.662;10.126;2023-04-24T12:42:36;14.90;99.90
23748;DHT22;12054;53.662;10.126;2023-04-24T12:45:06;14.90;99.90
23748;DHT22;12054;53.662;10.126;2023-04-24T12:47:33;14.90;99.90
23748;DHT22;12054;53.662;10.126;2023-04-24T12:49:59;14.80;99.90
23748;DHT22;12054;53.662;10.126;2023-04-24T12:52:27;14.80;99.90
23748;DHT22;12054;53.662;10.126;2023-04-24T12:54:59;14.80;99.90
23748;DHT22;12054;53.662;10.126;2023-04-24T12:57:29;14.80;99.90
23748;DHT22;12054;53.662;10.126;2023-04-24T12:59:58;14.80;99.90
23748;DHT22;12054;53.662;10.126;2023-04-24T13:02:26;14.80;99.90
23748;DHT22;12054;53.662;10.126;2023-04-24T13:04:52;14.80;99.90
23748;DHT22;12054;53.662;10.126;2023-04-24T13:07:19;14.80;99.90
23748;DHT22;12054;53.662;10.126;2023-04-24T13:09:45;14.80;99.90
23748;DHT22;12054;53.662;10.126;2023-04-24T13:12:15;14.80;99.90
23748;DHT22;12054;53.662;10.126;2023-04-24T13:14:41;14.70;99.90
23748;DHT22;12054;53.662;10.126;2023-04-24T13:17:07;14.70;99.90
23748;DHT22;12054;53.662;10.126;2023-04-24T13:19:41;14.70;99.90
23748;DHT22;12054;53.662;10.126;2023-04-24T13:22:11;14.70;99.90
23748;DHT22;12054;53.662;10.126;2023-04-24T13:24:43;14.70;99.90
23748;DHT22;12054;53.662;10.126;2023-04-24T13:27:12;14.60;99.90
23748;DHT22;12054;53.662;10.126;2023-04-24T13:29:55;14.50;99.90
23748;DHT22;12054;53.662;10.126;2023-04-24T13:32:20;14.40;99.90
23748;DHT22;12054;53.662;10.126;2023-04-24T13:34:49;14.40;99.90
23748;DHT22;12054;53.662;10.126;2023-04-24T13:37:16;14.40;99.90
23748;DHT22;12054;53.662;10.126;2023-04-24T13:39:45;14.30;99.90
23748;DHT22;12054;53.662;10.126;2023-04-24T13:42:11;14.30;99.90
23748;DHT22;12054;53.662;10.126;2023-04-24T13:44:41;14.20;99.90
23748;DHT22;12054;53.662;10.126;2023-04-24T13:47:07;14.20;99.90
23748;DHT22;12054;53.662;10.126;2023-04-24T13:49:32;14.10;99.90
23748;DHT22;12054;53.662;10.126;2023-04-24T13:52:01;14.00;99.90
23748;DHT22;12054;53.662;10.126;2023-04-24T13:54:27;14.00;99.90
23748;DHT22;12054;53.662;10.126;2023-04-24T13:56:58;14.10;99.90
23748;DHT22;12054;53.662;10.126;2023-04-24T13:59:24;14.00;99.90
23748;DHT22;12054;53.662;10.126;2023-04-24T14:01:50;14.00;99.90
23748;DHT22;12054;53.662;10.126;2023-04-24T14:04:17;13.90;99.90
23748;DHT22;12054;53.662;10.126;2023-04-24T14:06:49;14.00;99.90
23748;DHT22;12054;53.662;10.126;2023-04-24T14:09:29;14.00;99.90
23748;DHT22;12054;53.662;10.126;2023-04-24T14:11:55;14.10;99.90
23748;DHT22;12054;53.662;10.126;2023-04-24T14:14:23;14.00;99.90
23748;DHT22;12054;53.662;10.126;2023-04-24T14:16:52;14.00;99.90
23748;DHT22;12054;53.662;10.126;2023-04-24T14:19:25;13.90;99.90
23748;DHT22;12054;53.662;10.126;2023-04-24T14:21:52;14.00;99.90
23748;DHT22;12054;53.662;10.126;2023-04-24T14:24:19;13.90;99.90
23748;DHT22;12054;53.662;10.126;2023-04-24T14:26:44;13.90;99.90
23748;DHT22;12054;53.662;10.126;2023-04-24T14:29:10;13.90;99.90
23748;DHT22;12054;53.662;10.126;2023-04-24T14:31:35;13.90;99.90
23748;DHT22;12054;53.662;10.126;2023-04-24T14:34:01;13.90;99.90
23748;DHT22;12054;53.662;10.126;2023-04-24T14:36:28;13.80;99.90
23748;DHT22;12054;53.662;10.126;2023-04-24T14:38:53;13.80;99.90
23748;DHT22;12054;53.662;10.126;2023-04-24T14:41:19;13.90;99.90
23748;DHT22;12054;53.662;10.126;2023-04-24T14:43:44;13.80;99.90
23748;DHT22;12054;53.662;10.126;2023-04-24T14:46:10;13.80;99.90
23748;DHT22;12054;53.662;10.126;2023-04-24T14:48:35;13.80;99.90
23748;DHT22;12054;53.662;10.126;2023-04-24T14:51:01;13.70;99.90
23748;DHT22;12054;53.662;10.126;2023-04-24T14:53:26;13.80;99.90
23748;DHT22;12054;53.662;10.126;2023-04-24T14:55:52;13.80;99.90
23748;DHT22;12054;53.662;10.126;2023-04-24T14:58:18;13.70;99.90
23748;DHT22;12054;53.662;10.126;2023-04-24T15:00:44;13.70;99.90
23748;DHT22;12054;53.662;10.126;2023-04-24T15:03:09;13.70;99.90
23748;DHT22;12054;53.662;10.126;2023-04-24T15:05:35;13.60;99.90
23748;DHT22;12054;53.662;10.126;2023-04-24T15:08:00;13.50;99.90
23748;DHT22;12054;53.662;10.126;2023-04-24T15:10:27;13.40;99.90
23748;DHT22;12054;53.662;10.126;2023-04-24T15:12:54;13.40;99.90
23748;DHT22;12054;53.662;10.126;2023-04-24T15:15:23;13.30;99.90
23748;DHT22;12054;53.662;10.126;2023-04-24T15:17:49;13.30;99.90
23748;DHT22;12054;53.662;10.126;2023-04-24T15:20:15;13.30;99.90
23748;DHT22;12054;53.662;10.126;2023-04-24T15:22:40;13.30;99.90
23748;DHT22;12054;53.662;10.126;2023-04-24T15:25:06;13.30;99.90
23748;DHT22;12054;53.662;10.126;2023-04-24T15:27:45;13.30;99.90
23748;DHT22;12054;53.662;10.126;2023-04-24T15:30:11;13.20;99.90